createdAt,value
2023-04-27T00:01:37.080Z,3.53
2023-04-27T00:04:07.632Z,3.65
2023-04-27T00:06:35.006Z,3.70
2023-04-27T00:09:01.785Z,3.35
2023-04-27T00:11:28.487Z,3.70
2023-04-27T00:13:56.147Z,3.40
2023-04-27T00:16:23.032Z,3.25
2023-04-27T00:18:49.771Z,3.10
2023-04-27T00:21:16.621Z,3.15
2023-04-27T00:23:43.411Z,2.85
2023-04-27T00:26:10.224Z,3.08
2023-04-27T00:28:39.070Z,3.22
2023-04-27T00:31:05.978Z,3.60
2023-04-27T00:33:32.684Z,3.30
2023-04-27T00:36:01.290Z,2.90
2023-04-27T00:38:29.084Z,3.20
2023-04-27T00:41:06.633Z,3.20
2023-04-27T00:43:41.920Z,3.03
2023-04-27T00:46:09.246Z,3.00
2023-04-27T00:48:36.016Z,2.90
2023-04-27T00:51:02.872Z,3.30
2023-04-27T00:53:30.461Z,2.90
2023-04-27T00:55:58.628Z,2.67
2023-04-27T00:58:26.130Z,3.10
2023-04-27T01:00:53.149Z,2.47
2023-04-27T01:03:20.326Z,2.90
2023-04-27T01:05:47.208Z,3.03
2023-04-27T01:08:14.160Z,2.78
2023-04-27T01:10:41.317Z,3.20
2023-04-27T01:13:10.278Z,2.85
2023-04-27T01:15:38.145Z,2.65
2023-04-27T01:18:09.706Z,2.80
2023-04-27T01:20:36.485Z,2.40
2023-04-27T01:23:03.469Z,2.72
2023-04-27T01:25:30.153Z,3.03
2023-04-27T01:27:56.834Z,3.00
2023-04-27T01:30:23.754Z,2.45
2023-04-27T01:32:51.748Z,2.67
2023-04-27T01:35:19.383Z,2.40
2023-04-27T01:37:46.312Z,2.70
2023-04-27T01:40:13.699Z,2.50
2023-04-27T01:42:40.347Z,2.58
2023-04-27T01:45:09.395Z,2.70
2023-04-27T01:47:36.307Z,2.50
2023-04-27T01:50:03.916Z,2.50
2023-04-27T01:52:30.700Z,2.50
2023-04-27T01:54:57.568Z,2.47
2023-04-27T01:57:24.680Z,2.42
2023-04-27T01:59:51.411Z,2.53
2023-04-27T02:02:18.050Z,2.85
2023-04-27T02:04:45.454Z,2.33
2023-04-27T02:07:12.207Z,2.17
2023-04-27T02:09:38.968Z,2.47
2023-04-27T02:12:06.153Z,2.65
2023-04-27T02:14:32.798Z,2.30
2023-04-27T02:16:59.455Z,2.40
2023-04-27T02:19:26.285Z,2.33
2023-04-27T02:21:53.225Z,2.47
2023-04-27T02:24:20.060Z,2.60
2023-04-27T02:26:46.729Z,2.17
2023-04-27T02:29:15.985Z,2.10
2023-04-27T02:31:43.274Z,2.38
2023-04-27T02:34:12.928Z,2.20
2023-04-27T02:36:40.346Z,2.55
2023-04-27T02:39:06.990Z,2.22
2023-04-27T02:41:34.037Z,2.53
2023-04-27T02:44:00.938Z,2.30
2023-04-27T02:46:27.657Z,2.30
2023-04-27T02:48:55.547Z,1.80
2023-04-27T02:51:23.959Z,2.25
2023-04-27T02:53:53.208Z,2.13
2023-04-27T02:56:20.024Z,2.22
2023-04-27T02:58:47.996Z,2.00
2023-04-27T03:01:15.777Z,2.17
2023-04-27T03:03:44.874Z,2.38
2023-04-27T03:06:11.724Z,2.20
2023-04-27T03:08:38.454Z,2.25
2023-04-27T03:11:05.804Z,1.95
2023-04-27T03:13:41.294Z,2.53
2023-04-27T03:16:10.725Z,2.20
2023-04-27T03:21:12.112Z,2.17
2023-04-27T03:23:39.673Z,2.40
2023-04-27T03:26:08.517Z,2.60
2023-04-27T03:28:36.209Z,2.20
2023-04-27T03:31:11.016Z,2.03
2023-04-27T03:33:38.188Z,2.13
2023-04-27T03:36:06.582Z,2.10
2023-04-27T03:38:35.583Z,2.22
2023-04-27T03:41:02.672Z,3.00
2023-04-27T03:43:30.092Z,2.50
2023-04-27T03:45:56.862Z,2.40
2023-04-27T03:48:24.183Z,2.20
2023-04-27T03:50:53.302Z,2.35
2023-04-27T03:53:21.023Z,1.98
2023-04-27T03:55:48.919Z,2.30
2023-04-27T03:58:17.538Z,2.50
2023-04-27T04:01:03.387Z,2.40
2023-04-27T04:03:30.359Z,2.35
2023-04-27T04:05:57.556Z,2.25
2023-04-27T04:08:24.496Z,2.13
2023-04-27T04:10:51.418Z,2.08
2023-04-27T04:13:18.731Z,2.10
2023-04-27T04:15:45.794Z,2.40
2023-04-27T04:18:12.723Z,2.63
2023-04-27T04:20:39.564Z,2.55
2023-04-27T04:23:06.346Z,2.25
2023-04-27T04:25:33.561Z,2.45
2023-04-27T04:28:00.998Z,2.50
2023-04-27T04:30:28.862Z,2.58
2023-04-27T04:32:55.614Z,2.50
2023-04-27T04:35:22.589Z,2.58
2023-04-27T04:37:50.018Z,2.22
2023-04-27T04:40:17.158Z,2.25
2023-04-27T04:42:43.871Z,2.65
2023-04-27T04:45:10.911Z,2.55
2023-04-27T04:47:37.707Z,2.42
2023-04-27T04:50:04.796Z,2.55
2023-04-27T04:52:31.598Z,2.40
2023-04-27T04:54:59.081Z,2.00
2023-04-27T04:57:26.771Z,2.90
2023-04-27T04:59:53.732Z,2.60
2023-04-27T05:02:20.871Z,2.72
2023-04-27T05:04:48.705Z,2.55
2023-04-27T05:07:16.667Z,2.35
2023-04-27T05:09:45.576Z,2.58
2023-04-27T05:12:12.247Z,2.60
2023-04-27T05:14:39.030Z,2.95
2023-04-27T05:17:05.562Z,2.30
2023-04-27T05:19:32.244Z,2.50
2023-04-27T05:21:59.279Z,2.60
2023-04-27T05:24:26.916Z,2.80
2023-04-27T05:26:54.116Z,3.58
2023-04-27T05:29:22.003Z,2.55
2023-04-27T05:31:48.928Z,2.65
2023-04-27T05:34:15.806Z,2.80
2023-04-27T05:36:42.541Z,2.78
2023-04-27T05:39:09.304Z,2.60
2023-04-27T05:41:36.414Z,3.00
2023-04-27T05:44:03.316Z,2.88
2023-04-27T05:46:30.264Z,2.63
2023-04-27T05:48:57.055Z,2.70
2023-04-27T05:51:23.916Z,2.83
2023-04-27T05:53:50.764Z,2.80
2023-04-27T05:56:17.667Z,2.60
2023-04-27T05:58:45.745Z,2.72
2023-04-27T06:01:12.885Z,3.25
2023-04-27T06:03:39.872Z,2.78
2023-04-27T06:06:07.390Z,2.65
2023-04-27T06:08:37.379Z,2.55
2023-04-27T06:11:04.298Z,2.80
2023-04-27T06:13:32.813Z,2.90
2023-04-27T06:16:01.099Z,2.80
2023-04-27T06:18:28.100Z,2.50
2023-04-27T06:21:00.087Z,2.78
2023-04-27T06:23:26.844Z,2.78
2023-04-27T06:25:53.582Z,2.70
2023-04-27T06:28:20.509Z,2.95
2023-04-27T06:30:47.354Z,2.65
2023-04-27T06:33:13.973Z,2.85
2023-04-27T06:35:41.292Z,2.47
2023-04-27T06:38:08.273Z,2.88
2023-04-27T06:40:35.907Z,3.00
2023-04-27T06:43:03.165Z,2.55
2023-04-27T06:45:29.815Z,2.67
2023-04-27T06:47:57.182Z,2.90
2023-04-27T06:50:24.065Z,2.50
2023-04-27T06:52:50.953Z,2.88
2023-04-27T06:55:17.850Z,2.75
2023-04-27T06:57:44.639Z,2.95
2023-04-27T07:00:13.353Z,3.25
2023-04-27T07:02:40.159Z,2.80
2023-04-27T07:05:07.115Z,2.65
2023-04-27T07:07:33.750Z,2.90
2023-04-27T07:10:00.596Z,3.20
2023-04-27T07:12:27.434Z,3.33
2023-04-27T07:14:54.546Z,2.60
2023-04-27T07:17:21.638Z,2.92
2023-04-27T07:19:48.319Z,2.85
2023-04-27T07:22:16.116Z,2.80
2023-04-27T07:24:42.928Z,2.95
2023-04-27T07:27:10.303Z,2.63
2023-04-27T07:29:39.116Z,3.08
2023-04-27T07:32:07.403Z,2.85
2023-04-27T07:34:52.086Z,2.85
2023-04-27T07:37:22.717Z,2.67
2023-04-27T07:39:53.459Z,2.67
2023-04-27T07:42:25.057Z,3.25
2023-04-27T07:44:57.216Z,2.83
2023-04-27T07:47:23.972Z,2.67
2023-04-27T07:49:50.993Z,2.95
2023-04-27T07:52:17.709Z,2.90
2023-04-27T07:54:44.305Z,2.80
2023-04-27T07:57:14.255Z,3.30
2023-04-27T07:59:41.031Z,2.80
2023-04-27T08:02:19.080Z,3.35
2023-04-27T08:04:48.064Z,3.10
2023-04-27T08:07:19.421Z,3.07
2023-04-27T08:09:46.528Z,3.10
2023-04-27T08:12:13.464Z,2.80
2023-04-27T08:14:40.332Z,3.05
2023-04-27T08:17:07.161Z,3.20
2023-04-27T08:19:34.461Z,3.05
2023-04-27T08:22:01.326Z,3.53
2023-04-27T08:24:28.161Z,3.70
2023-04-27T08:26:55.082Z,3.00
2023-04-27T08:29:28.006Z,3.45
2023-04-27T08:31:58.897Z,3.13
2023-04-27T08:34:25.949Z,3.20
2023-04-27T08:36:53.972Z,2.90
2023-04-27T08:39:21.058Z,3.50
2023-04-27T08:41:47.706Z,3.60
2023-04-27T08:44:14.398Z,3.35
2023-04-27T08:46:41.340Z,3.28
2023-04-27T08:49:08.592Z,3.45
2023-04-27T08:51:35.737Z,3.47
2023-04-27T08:54:02.937Z,3.20
2023-04-27T08:56:30.726Z,3.60
2023-04-27T08:58:58.586Z,3.55
2023-04-27T09:01:26.354Z,3.28
2023-04-27T09:04:02.372Z,3.40
2023-04-27T09:06:34.420Z,3.05
2023-04-27T09:09:03.793Z,3.42
2023-04-27T09:11:38.893Z,3.30
2023-04-27T09:14:22.762Z,3.28
2023-04-27T09:16:57.844Z,3.60
2023-04-27T09:19:26.388Z,3.72
2023-04-27T09:22:13.668Z,3.35
2023-04-27T09:24:51.114Z,3.63
2023-04-27T09:27:21.805Z,3.15
2023-04-27T09:29:48.647Z,3.22
2023-04-27T09:32:17.232Z,3.72
2023-04-27T09:34:44.765Z,3.65
2023-04-27T09:37:12.160Z,3.65
2023-04-27T09:39:39.193Z,3.47
2023-04-27T09:42:06.201Z,3.40
2023-04-27T09:44:34.451Z,3.40
2023-04-27T09:47:01.405Z,3.53
2023-04-27T09:49:29.122Z,3.28
2023-04-27T09:51:57.050Z,3.30
2023-04-27T09:54:28.289Z,3.13
2023-04-27T09:57:27.243Z,3.78
2023-04-27T09:59:54.064Z,3.80
2023-04-27T10:02:24.762Z,3.45
2023-04-27T10:05:10.685Z,3.60
2023-04-27T10:07:39.771Z,3.17
2023-04-27T10:10:07.505Z,3.45
2023-04-27T10:12:36.603Z,3.30
2023-04-27T10:15:17.223Z,3.95
2023-04-27T10:17:53.293Z,3.58
2023-04-27T10:20:30.444Z,3.30
2023-04-27T10:22:57.898Z,3.35
2023-04-27T10:25:30.208Z,3.50
2023-04-27T10:28:01.519Z,3.55
2023-04-27T10:30:39.364Z,3.10
2023-04-27T10:33:11.846Z,3.40
2023-04-27T10:35:40.911Z,3.13
2023-04-27T10:38:19.211Z,3.45
2023-04-27T10:41:03.121Z,3.20
2023-04-27T10:43:31.990Z,3.28
2023-04-27T10:46:10.216Z,3.30
2023-04-27T10:48:38.571Z,3.20
2023-04-27T10:51:05.599Z,3.83
2023-04-27T10:53:36.125Z,2.85
2023-04-27T10:56:06.608Z,3.15
2023-04-27T10:58:45.400Z,3.08
2023-04-27T11:01:29.596Z,3.00
2023-04-27T11:04:00.354Z,3.40
2023-04-27T11:06:28.627Z,3.28
2023-04-27T11:08:55.712Z,3.40
2023-04-27T11:11:22.639Z,3.10
2023-04-27T11:13:52.772Z,3.13
2023-04-27T11:16:19.899Z,3.35
2023-04-27T11:18:46.702Z,2.80
2023-04-27T11:21:23.524Z,3.10
2023-04-27T11:23:50.407Z,3.25
2023-04-27T11:26:22.131Z,3.25
2023-04-27T11:28:58.026Z,2.80
2023-04-27T11:31:25.914Z,2.90
2023-04-27T11:33:53.887Z,3.33
2023-04-27T11:36:23.185Z,3.30
2023-04-27T11:38:50.135Z,3.10
2023-04-27T11:41:17.737Z,2.90
2023-04-27T11:43:51.338Z,3.00
2023-04-27T11:46:22.247Z,3.08
2023-04-27T11:48:49.421Z,3.17
2023-04-27T11:51:16.232Z,3.10
2023-04-27T11:53:48.270Z,3.47
2023-04-27T11:56:15.176Z,3.58
2023-04-27T11:58:42.960Z,2.90
2023-04-27T12:01:11.973Z,3.03
2023-04-27T12:03:39.044Z,3.08
2023-04-27T12:06:27.549Z,3.47
2023-04-27T12:08:53.396Z,3.00
2023-04-27T12:11:20.832Z,2.88
2023-04-27T12:13:48.219Z,2.80
2023-04-27T12:16:15.008Z,3.08
2023-04-27T12:18:41.971Z,2.70
2023-04-27T12:21:10.272Z,2.97
2023-04-27T12:23:37.219Z,2.72
2023-04-27T12:26:03.865Z,2.97
2023-04-27T12:28:30.758Z,2.88
2023-04-27T12:30:57.912Z,2.72
2023-04-27T12:33:24.778Z,2.97
2023-04-27T12:35:52.047Z,2.70
2023-04-27T12:38:18.821Z,2.70
2023-04-27T12:40:45.731Z,2.40
2023-04-27T12:43:12.894Z,2.78
2023-04-27T12:45:39.891Z,2.67
2023-04-27T12:48:07.137Z,2.90
2023-04-27T12:50:34.318Z,2.97
2023-04-27T12:53:01.316Z,2.65
2023-04-27T12:57:58.355Z,2.70
2023-04-27T13:00:25.575Z,2.80
2023-04-27T13:02:53.171Z,2.92
2023-04-27T13:05:21.514Z,2.75
2023-04-27T13:07:48.187Z,2.80
2023-04-27T13:10:15.079Z,2.60
2023-04-27T13:12:41.830Z,2.88
2023-04-27T13:15:09.289Z,3.00
2023-04-27T13:17:36.030Z,2.80
2023-04-27T13:20:03.044Z,2.70
2023-04-27T13:22:30.119Z,2.72
2023-04-27T13:24:56.851Z,2.47
2023-04-27T13:27:25.356Z,2.63
2023-04-27T13:29:52.139Z,2.73
2023-04-27T13:32:18.970Z,3.35
2023-04-27T13:34:46.029Z,2.70
2023-04-27T13:37:12.793Z,2.88
2023-04-27T13:39:39.545Z,2.75
2023-04-27T13:42:06.628Z,3.33
2023-04-27T13:44:33.714Z,2.70
2023-04-27T13:47:00.697Z,3.00
2023-04-27T13:49:27.368Z,2.90
2023-04-27T13:51:54.105Z,3.08
2023-04-27T13:54:21.529Z,2.80
2023-04-27T13:56:48.884Z,2.85
2023-04-27T13:59:16.761Z,3.00
2023-04-27T14:01:43.731Z,3.25
2023-04-27T14:04:10.835Z,3.00
2023-04-27T14:06:37.729Z,3.47
2023-04-27T14:09:04.932Z,3.10
2023-04-27T14:11:37.169Z,2.90
2023-04-27T14:14:09.004Z,3.40
2023-04-27T14:16:35.843Z,2.90
2023-04-27T14:19:02.591Z,2.92
2023-04-27T14:21:29.343Z,2.80
2023-04-27T14:23:56.190Z,3.38
2023-04-27T14:26:22.874Z,3.00
2023-04-27T14:28:49.550Z,3.10
2023-04-27T14:31:16.557Z,2.90
2023-04-27T14:33:43.180Z,3.00
2023-04-27T14:36:09.962Z,3.10
2023-04-27T14:38:36.587Z,3.17
2023-04-27T14:41:03.248Z,3.45
2023-04-27T14:43:30.299Z,3.17
2023-04-27T14:46:05.134Z,3.10
2023-04-27T14:48:45.463Z,2.95
2023-04-27T14:51:16.006Z,3.28
2023-04-27T14:53:43.004Z,3.22
2023-04-27T14:56:09.707Z,3.67
2023-04-27T14:58:36.376Z,3.83
2023-04-27T15:01:04.062Z,3.30
2023-04-27T15:03:32.751Z,3.33
2023-04-27T15:06:00.466Z,3.03
2023-04-27T15:08:27.527Z,3.55
2023-04-27T15:10:57.725Z,3.05
2023-04-27T15:13:24.849Z,3.00
2023-04-27T15:15:56.208Z,3.28
2023-04-27T15:18:24.072Z,3.60
2023-04-27T15:20:59.041Z,3.33
2023-04-27T15:23:26.962Z,3.75
2023-04-27T15:25:58.549Z,3.17
2023-04-27T15:28:25.445Z,3.65
2023-04-27T15:30:52.407Z,3.33
2023-04-27T15:33:19.318Z,2.92
2023-04-27T15:35:46.287Z,3.20
2023-04-27T15:38:14.785Z,3.03
2023-04-27T15:40:41.857Z,3.25
2023-04-27T15:43:08.787Z,3.15
2023-04-27T15:45:35.951Z,3.38
2023-04-27T15:48:02.823Z,2.97
2023-04-27T15:50:29.734Z,3.00
2023-04-27T15:52:56.714Z,2.65
2023-04-27T15:55:23.493Z,3.38
2023-04-27T15:57:50.641Z,3.15
2023-04-27T16:00:18.917Z,3.28
2023-04-27T16:02:46.675Z,3.58
2023-04-27T16:05:13.785Z,4.00
2023-04-27T16:07:43.926Z,3.42
2023-04-27T16:10:11.776Z,3.22
2023-04-27T16:12:39.226Z,3.17
2023-04-27T16:15:10.100Z,3.10
2023-04-27T16:17:38.069Z,3.20
2023-04-27T16:20:08.356Z,3.72
2023-04-27T16:22:36.187Z,3.17
2023-04-27T16:25:04.061Z,3.33
2023-04-27T16:27:31.000Z,3.38
2023-04-27T16:29:57.743Z,3.53
2023-04-27T16:32:24.611Z,3.72
2023-04-27T16:34:51.436Z,3.67
2023-04-27T16:37:18.199Z,3.70
2023-04-27T16:39:45.246Z,3.65
2023-04-27T16:42:16.283Z,3.53
2023-04-27T16:44:42.912Z,3.42
2023-04-27T16:47:09.584Z,3.42
2023-04-27T16:49:36.537Z,3.38
2023-04-27T16:52:04.128Z,3.65
2023-04-27T16:54:31.111Z,3.47
2023-04-27T16:56:57.765Z,3.70
2023-04-27T16:59:24.433Z,3.70
2023-04-27T17:01:51.502Z,3.88
2023-04-27T17:04:18.566Z,4.28
2023-04-27T17:06:47.952Z,3.90
2023-04-27T17:11:42.474Z,3.80
2023-04-27T17:14:09.175Z,3.80
2023-04-27T17:16:35.937Z,4.20
2023-04-27T17:19:02.673Z,4.30
2023-04-27T17:21:29.401Z,4.68
2023-04-27T17:23:56.207Z,4.88
2023-04-27T17:26:22.930Z,4.30
2023-04-27T17:28:49.907Z,4.40
2023-04-27T17:31:19.415Z,4.28
2023-04-27T17:33:46.226Z,4.28
2023-04-27T17:36:13.080Z,4.32
2023-04-27T17:38:39.919Z,4.70
2023-04-27T17:41:06.922Z,4.68
2023-04-27T17:43:33.650Z,4.50
2023-04-27T17:46:00.448Z,4.60
2023-04-27T17:48:27.184Z,4.43
2023-04-27T17:50:54.255Z,4.20
2023-04-27T17:53:21.001Z,5.00
2023-04-27T17:55:47.903Z,5.18
2023-04-27T17:58:17.135Z,4.95
2023-04-27T18:00:44.594Z,4.47
2023-04-27T18:03:12.137Z,5.75
2023-04-27T18:05:39.036Z,4.85
2023-04-27T18:08:05.992Z,4.72
2023-04-27T18:10:32.803Z,5.32
2023-04-27T18:12:59.566Z,4.63
2023-04-27T18:15:26.359Z,4.60
2023-04-27T18:17:53.132Z,4.40
2023-04-27T18:20:22.384Z,5.00
2023-04-27T18:22:49.868Z,4.88
2023-04-27T18:25:16.697Z,4.50
2023-04-27T18:27:45.128Z,4.80
2023-04-27T18:30:11.954Z,4.60
2023-04-27T18:32:38.732Z,4.70
2023-04-27T18:35:06.469Z,4.60
2023-04-27T18:37:33.601Z,4.95
2023-04-27T18:40:00.358Z,4.32
2023-04-27T18:42:27.154Z,4.95
2023-04-27T18:45:00.514Z,4.63
2023-04-27T18:47:27.753Z,5.15
2023-04-27T18:49:54.540Z,4.85
2023-04-27T18:52:21.996Z,5.30
2023-04-27T18:54:48.711Z,4.63
2023-04-27T18:57:15.706Z,5.00
2023-04-27T18:59:42.621Z,5.13
2023-04-27T19:02:09.539Z,4.93
2023-04-27T19:04:36.487Z,4.60
2023-04-27T19:07:03.599Z,5.28
2023-04-27T19:09:30.532Z,4.85
2023-04-27T19:12:02.749Z,4.93
2023-04-27T19:14:31.487Z,4.88
2023-04-27T19:16:58.186Z,4.65
2023-04-27T19:19:26.478Z,4.50
2023-04-27T19:21:53.521Z,4.82
2023-04-27T19:24:20.181Z,5.10
2023-04-27T19:26:47.824Z,5.05
2023-04-27T19:29:14.887Z,4.30
2023-04-27T19:31:41.899Z,4.45
2023-04-27T19:34:08.653Z,4.93
2023-04-27T19:36:35.409Z,4.90
2023-04-27T19:39:02.140Z,4.18
2023-04-27T19:41:28.853Z,4.50
2023-04-27T19:43:55.681Z,4.50
2023-04-27T19:46:22.377Z,4.38
2023-04-27T19:48:49.097Z,4.32
2023-04-27T19:51:15.827Z,4.03
2023-04-27T19:53:42.571Z,4.28
2023-04-27T19:56:09.287Z,4.40
2023-04-27T19:58:37.106Z,4.45
2023-04-27T20:01:04.091Z,4.68
2023-04-27T20:03:30.912Z,4.50
2023-04-27T20:05:58.170Z,4.78
2023-04-27T20:08:25.114Z,4.50
2023-04-27T20:10:51.894Z,4.57
2023-04-27T20:13:18.974Z,4.05
2023-04-27T20:15:46.635Z,4.68
2023-04-27T20:18:13.587Z,4.38
2023-04-27T20:20:41.923Z,4.18
2023-04-27T20:23:08.749Z,4.57
2023-04-27T20:25:35.547Z,4.35
2023-04-27T20:28:02.421Z,4.10
2023-04-27T20:30:29.231Z,4.55
2023-04-27T20:32:56.486Z,4.45
2023-04-27T20:35:24.168Z,5.10
2023-04-27T20:37:52.021Z,4.22
2023-04-27T20:40:19.075Z,4.57
2023-04-27T20:42:46.110Z,4.43
2023-04-27T20:45:13.287Z,4.35
2023-04-27T20:47:40.421Z,4.70
2023-04-27T20:50:08.011Z,4.68
2023-04-27T20:52:35.117Z,3.97
2023-04-27T20:55:05.653Z,4.95
2023-04-27T20:57:32.495Z,4.40
2023-04-27T20:59:59.344Z,4.35
2023-04-27T21:02:26.317Z,4.35
2023-04-27T21:04:53.469Z,4.35
2023-04-27T21:07:20.385Z,4.70
2023-04-27T21:09:47.217Z,4.43
2023-04-27T21:12:14.930Z,4.57
2023-04-27T21:14:41.757Z,4.38
2023-04-27T21:17:08.509Z,4.28
2023-04-27T21:19:35.395Z,4.25
2023-04-27T21:22:02.337Z,4.25
2023-04-27T21:24:29.436Z,4.57
2023-04-27T21:26:56.061Z,4.05
2023-04-27T21:29:22.803Z,4.10
2023-04-27T21:31:49.375Z,3.83
2023-04-27T21:34:16.146Z,4.22
2023-04-27T21:36:43.070Z,4.50
2023-04-27T21:39:09.777Z,4.35
2023-04-27T21:41:37.169Z,4.40
2023-04-27T21:44:04.124Z,3.83
2023-04-27T21:46:30.819Z,4.15
2023-04-27T21:48:57.795Z,4.75
2023-04-27T21:51:24.606Z,4.55
2023-04-27T21:53:51.400Z,4.38
2023-04-27T21:56:17.961Z,4.18
2023-04-27T21:58:44.833Z,4.13
2023-04-27T22:01:13.026Z,4.50
2023-04-27T22:03:39.912Z,4.40
2023-04-27T22:06:07.497Z,4.40
2023-04-27T22:08:35.091Z,3.92
2023-04-27T22:11:02.211Z,3.97
2023-04-27T22:13:28.798Z,3.80
2023-04-27T22:15:55.573Z,4.18
2023-04-27T22:18:22.407Z,4.13
2023-04-27T22:20:49.420Z,3.58
2023-04-27T22:23:16.700Z,4.03
2023-04-27T22:25:43.420Z,4.00
2023-04-27T22:28:10.798Z,4.40
2023-04-27T22:30:38.392Z,3.72
2023-04-27T22:33:05.327Z,3.78
2023-04-27T22:35:33.219Z,3.80
2023-04-27T22:38:00.357Z,4.05
2023-04-27T22:40:27.014Z,3.53
2023-04-27T22:42:55.036Z,3.55
2023-04-27T22:45:22.754Z,4.00
2023-04-27T22:47:49.671Z,3.88
2023-04-27T22:50:16.765Z,3.75
2023-04-27T22:52:43.734Z,3.97
2023-04-27T22:55:11.629Z,3.75
2023-04-27T22:57:39.591Z,3.92
2023-04-27T23:00:10.906Z,3.80
2023-04-27T23:02:41.458Z,3.65
2023-04-27T23:05:10.890Z,3.50
2023-04-27T23:07:38.636Z,3.65
2023-04-27T23:10:06.025Z,3.88
2023-04-27T23:12:33.332Z,3.80
2023-04-27T23:15:00.216Z,3.60
2023-04-27T23:17:33.134Z,3.50
2023-04-27T23:20:01.511Z,4.20
2023-04-27T23:22:28.881Z,3.45
2023-04-27T23:24:56.353Z,3.72
2023-04-27T23:27:25.792Z,3.25
2023-04-27T23:29:52.666Z,3.67
2023-04-27T23:32:19.689Z,3.90
2023-04-27T23:34:46.614Z,3.67
2023-04-27T23:37:13.444Z,3.80
2023-04-27T23:39:40.079Z,3.20
2023-04-27T23:42:06.911Z,3.35
2023-04-27T23:44:33.838Z,3.15
2023-04-27T23:47:00.592Z,3.30
2023-04-27T23:49:27.340Z,3.58
2023-04-27T23:51:54.164Z,3.55
2023-04-27T23:54:20.961Z,3.40
2023-04-27T23:56:47.681Z,2.97
2023-04-27T23:59:15.115Z,3.15
